Time;durP1;ratioP1;P1;durP2;ratioP2;P2;SDS_P1;SDS_P2;PMS_P1;PMS_P2;Temp;Humidity;BMP_temperature;BMP_pressure;BME280_temperature;BME280_humidity;BME280_pressure;Samples;Min_cycle;Max_cycle;Signal;HPM_P1;HPM_P2
2023/07/05 00:01:18;;;;;;;5.82;4.00;;;22.00;61.00;;;;;;4840610;29;20073;-51
2023/07/05 00:03:44;;;;;;;6.28;3.92;;;21.90;61.40;;;;;;4840680;29;20038;-49
2023/07/05 00:06:13;;;;;;;5.28;4.00;;;21.90;61.70;;;;;;4841179;29;20574;-52
2023/07/05 00:08:42;;;;;;;9.10;4.35;;;21.90;61.90;;;;;;4839640;29;20042;-50
2023/07/05 00:11:10;;;;;;;7.57;4.25;;;21.90;62.20;;;;;;4840456;29;20121;-54
2023/07/05 00:13:38;;;;;;;7.22;4.03;;;21.90;61.80;;;;;;4841648;29;20064;-50
2023/07/05 00:16:11;;;;;;;6.18;3.95;;;21.80;61.90;;;;;;4841283;29;20048;-54
2023/07/05 00:18:39;;;;;;;4.97;3.80;;;21.80;62.00;;;;;;4841163;29;20038;-51
2023/07/05 00:21:08;;;;;;;7.50;4.82;;;21.80;61.80;;;;;;4840262;29;20094;-50
2023/07/05 00:23:36;;;;;;;6.65;3.67;;;21.80;62.20;;;;;;4841347;29;20086;-53
2023/07/05 00:26:06;;;;;;;6.10;4.13;;;21.70;62.00;;;;;;4840775;29;20045;-50
2023/07/05 00:28:33;;;;;;;8.05;3.85;;;21.70;61.90;;;;;;4840809;29;20507;-50
2023/07/05 00:31:05;;;;;;;7.22;4.20;;;21.70;61.80;;;;;;4839210;29;20388;-53
2023/07/05 00:33:35;;;;;;;8.90;4.20;;;21.70;62.30;;;;;;4822069;29;20050;-52
2023/07/05 00:36:04;;;;;;;5.80;3.22;;;21.70;62.30;;;;;;4839575;29;20133;-51
2023/07/05 00:38:31;;;;;;;4.00;3.60;;;21.60;62.00;;;;;;4831174;29;20537;-54
2023/07/05 00:41:03;;;;;;;3.70;3.03;;;21.60;62.10;;;;;;4827945;29;20046;-54
2023/07/05 00:43:34;;;;;;;4.68;3.60;;;21.60;62.20;;;;;;4833455;29;20098;-53
2023/07/05 00:46:24;;;;;;;4.30;3.17;;;21.60;62.10;;;;;;4835107;29;20579;-52
2023/07/05 00:49:13;;;;;;;3.95;2.95;;;21.50;62.60;;;;;;4839205;29;20045;-53
2023/07/05 00:52:00;;;;;;;4.53;2.92;;;21.50;62.90;;;;;;4839575;29;20049;-54
2023/07/05 00:54:34;;;;;;;3.17;2.65;;;21.50;62.70;;;;;;4827417;29;20054;-53
2023/07/05 00:57:07;;;;;;;3.88;2.53;;;21.40;62.50;;;;;;4840582;29;20046;-50
2023/07/05 00:59:39;;;;;;;4.15;3.38;;;21.40;62.60;;;;;;4840349;29;20507;-50
2023/07/05 01:02:09;;;;;;;2.97;2.38;;;21.40;62.70;;;;;;4840426;29;20053;-51
2023/07/05 01:04:40;;;;;;;4.72;2.85;;;21.40;63.00;;;;;;4840458;29;20052;-54
2023/07/05 01:07:09;;;;;;;3.25;2.15;;;21.40;63.00;;;;;;4840823;29;20049;-50
2023/07/05 01:09:38;;;;;;;4.00;2.47;;;21.40;63.50;;;;;;4838869;29;20133;-51
2023/07/05 01:12:15;;;;;;;3.75;2.33;;;21.40;63.10;;;;;;4844695;29;20134;-53
2023/07/05 01:15:02;;;;;;;2.60;2.13;;;21.30;63.40;;;;;;4844486;29;20062;-54
2023/07/05 01:17:55;;;;;;;3.55;2.25;;;21.30;63.70;;;;;;4840826;29;20488;-50
2023/07/05 01:20:43;;;;;;;4.30;2.90;;;21.30;63.90;;;;;;4837901;29;20077;-51
2023/07/05 01:23:25;;;;;;;2.13;1.92;;;21.30;64.60;;;;;;4835660;29;20050;-54
2023/07/05 01:26:28;;;;;;;2.63;1.63;;;21.30;64.10;;;;;;4839872;29;20161;-53
2023/07/05 01:29:11;;;;;;;2.25;1.60;;;21.30;64.60;;;;;;4854308;29;20041;-54
2023/07/05 01:31:48;;;;;;;2.95;2.13;;;21.20;64.50;;;;;;4840270;29;20041;-52
2023/07/05 01:34:27;;;;;;;2.95;1.80;;;21.30;64.30;;;;;;4844059;29;20050;-53
2023/07/05 01:36:57;;;;;;;2.30;1.95;;;21.20;64.20;;;;;;4840337;29;20038;-54
2023/07/05 01:39:25;;;;;;;1.90;1.75;;;21.20;64.10;;;;;;4840110;29;20070;-53
2023/07/05 01:41:54;;;;;;;3.42;1.55;;;21.30;64.10;;;;;;4839513;29;20419;-53
2023/07/05 01:44:21;;;;;;;2.10;1.48;;;21.20;64.30;;;;;;4851063;29;20123;-54
2023/07/05 01:47:05;;;;;;;2.28;1.90;;;21.20;64.30;;;;;;4853851;29;20129;-52
2023/07/05 01:49:53;;;;;;;1.23;1.13;;;21.20;64.90;;;;;;4838260;29;20050;-54
2023/07/05 01:52:31;;;;;;;2.03;1.42;;;21.20;64.90;;;;;;4837576;29;20078;-51
2023/07/05 01:55:18;;;;;;;1.45;1.35;;;21.20;64.90;;;;;;4839003;29;20054;-54
2023/07/05 01:57:52;;;;;;;1.38;1.20;;;21.20;64.50;;;;;;4839547;29;20072;-50
2023/07/05 02:00:25;;;;;;;3.30;1.27;;;21.20;64.90;;;;;;4837607;29;20062;-53
2023/07/05 02:03:00;;;;;;;3.45;1.60;;;21.20;65.00;;;;;;4843797;29;20050;-52
2023/07/05 02:05:29;;;;;;;1.30;1.20;;;21.20;65.40;;;;;;4837285;29;20084;-51
2023/07/05 02:07:59;;;;;;;1.10;0.93;;;21.20;65.30;;;;;;4840124;29;20049;-51
2023/07/05 02:10:29;;;;;;;2.33;1.10;;;21.20;65.10;;;;;;4831189;29;20057;-52
2023/07/05 02:13:00;;;;;;;1.50;1.20;;;21.20;65.00;;;;;;4839855;29;20121;-51
2023/07/05 02:15:27;;;;;;;1.30;1.20;;;21.10;64.70;;;;;;4837608;29;20038;-52
2023/07/05 02:17:56;;;;;;;2.10;1.30;;;21.10;64.60;;;;;;4838280;29;20423;-53
2023/07/05 02:20:25;;;;;;;1.40;1.17;;;21.10;64.60;;;;;;4838081;29;20060;-49
2023/07/05 02:22:53;;;;;;;1.80;1.10;;;21.10;64.50;;;;;;4838749;29;20066;-51
2023/07/05 02:25:20;;;;;;;1.50;1.08;;;21.10;64.50;;;;;;4836951;29;20106;-51
2023/07/05 02:27:50;;;;;;;0.88;0.85;;;21.00;64.30;;;;;;4840089;29;20046;-50
2023/07/05 02:30:22;;;;;;;1.30;0.80;;;21.00;64.00;;;;;;4852393;29;20069;-52
2023/07/05 02:32:48;;;;;;;2.33;1.00;;;21.00;63.70;;;;;;4821118;29;20622;-54
2023/07/05 02:35:20;;;;;;;0.90;0.90;;;21.00;63.30;;;;;;4851747;29;20049;-50
2023/07/05 02:37:53;;;;;;;1.05;0.70;;;20.90;62.60;;;;;;4853883;29;20078;-50
2023/07/05 02:40:22;;;;;;;1.98;0.82;;;20.90;61.90;;;;;;4836530;29;20050;-54
2023/07/05 02:42:49;;;;;;;2.13;1.10;;;20.90;61.50;;;;;;4821695;29;20064;-54
2023/07/05 02:45:17;;;;;;;1.73;0.70;;;20.80;60.60;;;;;;4850954;29;20073;-53
2023/07/05 02:47:46;;;;;;;1.45;1.02;;;20.80;60.60;;;;;;4839996;29;20575;-53
2023/07/05 02:50:17;;;;;;;1.40;0.90;;;20.70;59.50;;;;;;4837921;29;20041;-53
2023/07/05 02:52:47;;;;;;;1.00;0.90;;;20.70;59.00;;;;;;4835915;29;20045;-53
2023/07/05 02:55:14;;;;;;;4.03;1.52;;;20.60;58.30;;;;;;4823631;29;20052;-53
2023/07/05 02:57:41;;;;;;;1.95;1.40;;;20.50;58.20;;;;;;4853434;29;20085;-53
2023/07/05 03:00:13;;;;;;;1.20;1.10;;;20.40;58.00;;;;;;4836868;29;20053;-52
2023/07/05 03:02:44;;;;;;;1.73;1.20;;;20.30;57.80;;;;;;4838391;29;20061;-51
2023/07/05 03:05:12;;;;;;;2.28;1.35;;;20.20;57.40;;;;;;4838695;29;20046;-52
2023/07/05 03:07:42;;;;;;;1.55;1.25;;;20.10;57.60;;;;;;4832053;29;20046;-53
2023/07/05 03:10:13;;;;;;;2.00;1.55;;;20.00;57.50;;;;;;4837907;29;20133;-53
2023/07/05 03:12:44;;;;;;;1.92;1.40;;;19.90;57.70;;;;;;4820530;29;20042;-52
2023/07/05 03:15:14;;;;;;;2.63;1.45;;;19.80;58.30;;;;;;4837493;29;20136;-53
2023/07/05 03:17:43;;;;;;;1.92;1.58;;;19.70;58.10;;;;;;4840274;29;20133;-53
2023/07/05 03:20:14;;;;;;;3.13;1.30;;;19.60;58.10;;;;;;4837980;29;20053;-50
2023/07/05 03:22:44;;;;;;;1.45;1.15;;;19.60;58.10;;;;;;4837310;29;20515;-53
2023/07/05 03:25:12;;;;;;;3.45;1.67;;;19.50;58.20;;;;;;4838681;29;20095;-52
2023/07/05 03:27:41;;;;;;;1.88;1.77;;;19.40;58.40;;;;;;4840075;29;20053;-54
2023/07/05 03:30:08;;;;;;;2.25;1.50;;;19.40;58.50;;;;;;4839081;29;20048;-52
2023/07/05 03:32:44;;;;;;;2.00;1.80;;;19.40;58.50;;;;;;4842982;29;20074;-52
2023/07/05 03:35:13;;;;;;;2.75;1.60;;;19.30;58.40;;;;;;4837045;29;20079;-52
2023/07/05 03:37:41;;;;;;;2.85;1.63;;;19.20;58.30;;;;;;4853789;29;20472;-51
2023/07/05 03:40:16;;;;;;;3.42;1.55;;;19.20;58.40;;;;;;4837295;29;20132;-52
2023/07/05 03:42:43;;;;;;;2.78;1.30;;;19.10;58.60;;;;;;4840927;29;20054;-49
2023/07/05 03:45:12;;;;;;;2.55;1.73;;;19.00;58.50;;;;;;4838569;29;20074;-52
2023/07/05 03:47:39;;;;;;;3.38;2.20;;;19.00;58.70;;;;;;4839664;29;20053;-50
2023/07/05 03:50:06;;;;;;;2.50;1.85;;;18.90;58.80;;;;;;4839108;29;20050;-53
2023/07/05 03:52:33;;;;;;;3.58;2.13;;;18.80;58.90;;;;;;4835880;29;20073;-53
2023/07/05 03:55:00;;;;;;;2.80;1.77;;;18.80;59.10;;;;;;4838111;29;20129;-52
2023/07/05 03:57:29;;;;;;;1.65;1.50;;;18.70;59.10;;;;;;4839702;29;20052;-52
2023/07/05 03:59:55;;;;;;;2.28;1.75;;;18.70;58.90;;;;;;4839151;29;20038;-53
2023/07/05 04:02:24;;;;;;;2.08;1.90;;;18.60;59.10;;;;;;4837637;29;20129;-50
2023/07/05 04:04:51;;;;;;;2.50;1.73;;;18.60;59.40;;;;;;4836231;29;20069;-51
2023/07/05 04:07:29;;;;;;;2.63;2.05;;;18.50;59.30;;;;;;4839285;29;20121;-51
2023/07/05 04:09:56;;;;;;;2.97;1.90;;;18.50;59.50;;;;;;4839158;29;20570;-51
2023/07/05 04:12:23;;;;;;;3.30;2.47;;;18.50;59.30;;;;;;4837387;29;20512;-53
2023/07/05 04:14:49;;;;;;;3.90;2.05;;;18.50;59.60;;;;;;4837511;29;20048;-52
2023/07/05 04:17:16;;;;;;;3.30;2.35;;;18.50;59.40;;;;;;4839490;29;20539;-53
2023/07/05 04:19:46;;;;;;;2.83;2.22;;;18.50;59.30;;;;;;4841677;29;20049;-53
2023/07/05 04:22:20;;;;;;;4.22;2.25;;;18.50;59.30;;;;;;4840725;29;20049;-53
2023/07/05 04:24:49;;;;;;;2.00;1.80;;;18.60;59.10;;;;;;4841224;29;20508;-51
2023/07/05 04:27:16;;;;;;;2.85;2.00;;;18.60;59.00;;;;;;4842313;29;20045;-51
2023/07/05 04:29:43;;;;;;;3.08;2.38;;;18.60;59.10;;;;;;4842320;29;20040;-54
2023/07/05 04:32:12;;;;;;;4.30;2.65;;;18.60;58.90;;;;;;4840799;29;20458;-53
2023/07/05 04:34:40;;;;;;;3.05;2.20;;;18.60;59.20;;;;;;4840278;29;20061;-54
2023/07/05 04:37:07;;;;;;;3.35;2.05;;;18.60;59.00;;;;;;4840104;29;20113;-52
2023/07/05 04:39:34;;;;;;;4.68;2.28;;;18.60;58.90;;;;;;4840074;29;20133;-52
2023/07/05 04:42:00;;;;;;;3.33;2.42;;;18.60;58.80;;;;;;4840574;29;20560;-52
2023/07/05 04:44:27;;;;;;;3.17;2.17;;;18.60;58.60;;;;;;4840220;29;20498;-54
2023/07/05 04:46:54;;;;;;;4.63;2.28;;;18.60;58.80;;;;;;4841283;29;20081;-52
2023/07/05 04:49:20;;;;;;;3.72;1.98;;;18.60;58.80;;;;;;4840507;29;20058;-49
2023/07/05 04:51:47;;;;;;;4.03;2.28;;;18.60;58.50;;;;;;4839244;29;20038;-54
2023/07/05 04:54:16;;;;;;;4.85;3.10;;;18.60;58.50;;;;;;4839428;29;20117;-48
2023/07/05 04:56:43;;;;;;;4.13;2.72;;;18.60;58.40;;;;;;4840900;29;20468;-50
2023/07/05 04:59:12;;;;;;;4.75;2.30;;;18.60;58.30;;;;;;4840221;29;20062;-49
2023/07/05 05:01:39;;;;;;;4.63;2.42;;;18.60;58.00;;;;;;4839048;29;20060;-50
2023/07/05 05:04:06;;;;;;;3.58;2.78;;;18.70;58.10;;;;;;4839188;29;20046;-53
2023/07/05 05:06:33;;;;;;;3.55;2.45;;;18.70;57.90;;;;;;4839644;29;20658;-52
2023/07/05 05:08:59;;;;;;;3.53;2.50;;;18.70;57.50;;;;;;4840034;29;20050;-54
2023/07/05 05:11:28;;;;;;;3.55;2.03;;;18.80;57.60;;;;;;4838446;29;20058;-53
2023/07/05 05:13:58;;;;;;;4.30;2.83;;;18.70;57.20;;;;;;4838874;29;20048;-53
2023/07/05 05:16:24;;;;;;;5.03;2.70;;;18.80;57.20;;;;;;4838941;29;20142;-53
2023/07/05 05:18:51;;;;;;;3.03;2.40;;;18.80;57.10;;;;;;4838748;29;20050;-53
2023/07/05 05:21:18;;;;;;;3.80;2.22;;;18.80;56.90;;;;;;4837485;29;20547;-52
2023/07/05 05:23:44;;;;;;;4.28;2.42;;;18.80;57.00;;;;;;4838395;29;20168;-53
2023/07/05 05:26:12;;;;;;;4.80;2.83;;;18.80;57.00;;;;;;4839207;29;20128;-53
2023/07/05 05:28:38;;;;;;;3.08;2.17;;;18.80;56.70;;;;;;4838148;29;20806;-53
2023/07/05 05:31:08;;;;;;;3.05;2.40;;;18.80;56.80;;;;;;4837783;29;20049;-52
2023/07/05 05:33:35;;;;;;;4.13;2.78;;;18.80;56.60;;;;;;4839513;29;20046;-51
2023/07/05 05:36:03;;;;;;;4.95;2.30;;;18.80;56.60;;;;;;4839710;29;20081;-52
2023/07/05 05:38:30;;;;;;;3.90;2.20;;;18.80;56.50;;;;;;4838616;29;20074;-51
2023/07/05 05:41:08;;;;;;;4.05;2.55;;;18.80;56.50;;;;;;4838952;29;20050;-54
2023/07/05 05:43:35;;;;;;;5.03;2.55;;;18.90;56.60;;;;;;4838713;29;20076;-52
2023/07/05 05:46:03;;;;;;;2.88;2.22;;;18.90;56.40;;;;;;4835539;29;20050;-54
2023/07/05 05:48:30;;;;;;;3.08;2.05;;;18.90;56.10;;;;;;4838706;29;20110;-52
2023/07/05 05:50:56;;;;;;;4.03;2.17;;;18.90;56.00;;;;;;4836826;29;20154;-53
2023/07/05 05:53:23;;;;;;;2.97;2.15;;;18.90;56.20;;;;;;4837851;29;20046;-52
2023/07/05 05:55:50;;;;;;;3.17;2.17;;;18.90;56.10;;;;;;4831827;29;20415;-50
2023/07/05 05:58:19;;;;;;;3.50;2.50;;;18.90;56.30;;;;;;4838961;29;20053;-49
2023/07/05 06:00:46;;;;;;;3.08;1.95;;;19.00;56.20;;;;;;4838959;29;20052;-52
2023/07/05 06:03:13;;;;;;;5.03;1.83;;;19.00;55.80;;;;;;4837417;29;20118;-51
2023/07/05 06:05:41;;;;;;;2.78;1.67;;;19.00;55.70;;;;;;4845316;29;20053;-50
2023/07/05 06:08:07;;;;;;;3.03;1.80;;;19.00;55.50;;;;;;4839216;29;20080;-54
2023/07/05 06:10:34;;;;;;;2.45;1.58;;;19.00;55.50;;;;;;4839275;29;20116;-50
2023/07/05 06:13:01;;;;;;;2.97;1.80;;;19.10;55.30;;;;;;4839506;29;20102;-52
2023/07/05 06:15:30;;;;;;;4.15;1.60;;;19.00;55.50;;;;;;4840145;29;20045;-50
2023/07/05 06:17:57;;;;;;;4.00;1.90;;;19.10;55.40;;;;;;4840697;29;20049;-52
2023/07/05 06:20:23;;;;;;;3.28;1.90;;;19.10;55.30;;;;;;4840063;29;20045;-50
2023/07/05 06:22:50;;;;;;;3.85;1.42;;;19.10;55.50;;;;;;4810637;29;20045;-49
2023/07/05 06:25:17;;;;;;;5.88;2.30;;;19.10;55.30;;;;;;4839257;29;20094;-52
2023/07/05 06:27:43;;;;;;;2.22;1.75;;;19.10;55.10;;;;;;4839460;29;20045;-54
2023/07/05 06:30:11;;;;;;;3.20;1.77;;;19.20;55.10;;;;;;4838894;29;20038;-53
2023/07/05 06:32:38;;;;;;;2.78;1.48;;;19.20;55.20;;;;;;4838675;29;20049;-53
2023/07/05 06:35:05;;;;;;;3.38;1.48;;;19.20;55.10;;;;;;4839165;29;20045;-52
2023/07/05 06:37:31;;;;;;;3.08;1.70;;;19.20;54.90;;;;;;4839530;29;20054;-51
2023/07/05 06:39:58;;;;;;;2.17;1.48;;;19.20;54.90;;;;;;4838767;29;20423;-51
2023/07/05 06:42:27;;;;;;;3.22;1.58;;;19.30;54.80;;;;;;4830765;29;20046;-52
2023/07/05 06:45:02;;;;;;;4.10;1.50;;;19.30;54.70;;;;;;4824829;29;20074;-53
2023/07/05 06:47:28;;;;;;;2.38;1.58;;;19.30;54.40;;;;;;4838845;29;20077;-53
2023/07/05 06:49:55;;;;;;;1.50;1.40;;;19.30;54.30;;;;;;4836555;29;20081;-52
2023/07/05 06:52:22;;;;;;;2.83;1.58;;;19.30;54.20;;;;;;4833498;29;20120;-53
2023/07/05 06:54:49;;;;;;;3.65;2.03;;;19.20;54.30;;;;;;4835536;29;20064;-51
2023/07/05 06:57:17;;;;;;;2.88;1.60;;;19.20;54.30;;;;;;4837446;29;20045;-52
2023/07/05 06:59:46;;;;;;;2.40;1.40;;;19.10;54.40;;;;;;4838054;29;20062;-51
2023/07/05 07:02:12;;;;;;;2.03;1.35;;;19.10;54.60;;;;;;4839691;29;20121;-49
2023/07/05 07:04:39;;;;;;;2.88;1.83;;;19.00;54.70;;;;;;4843383;29;20689;-53
2023/07/05 07:07:06;;;;;;;2.50;1.40;;;19.00;54.80;;;;;;4837539;29;20199;-50
2023/07/05 07:09:34;;;;;;;2.58;1.30;;;19.00;55.10;;;;;;4837802;29;20052;-52
2023/07/05 07:12:01;;;;;;;2.90;1.40;;;19.00;55.30;;;;;;4838895;29;20491;-49
2023/07/05 07:14:28;;;;;;;5.03;1.42;;;19.00;55.40;;;;;;4837070;29;20058;-53
2023/07/05 07:16:55;;;;;;;4.28;1.65;;;19.00;55.20;;;;;;4838112;29;20129;-52
2023/07/05 07:19:22;;;;;;;2.85;1.30;;;19.10;55.30;;;;;;4836051;29;20080;-49
2023/07/05 07:21:51;;;;;;;2.13;1.40;;;19.10;55.40;;;;;;4825467;29;20598;-54
2023/07/05 07:24:17;;;;;;;3.58;1.30;;;19.10;55.30;;;;;;4829712;29;20050;-49
2023/07/05 07:26:45;;;;;;;2.22;1.70;;;19.10;55.20;;;;;;4835723;29;20072;-50
2023/07/05 07:29:12;;;;;;;2.30;1.40;;;19.20;55.00;;;;;;4837908;29;20098;-51
2023/07/05 07:31:38;;;;;;;2.47;1.23;;;19.10;55.10;;;;;;4837195;29;20045;-49
2023/07/05 07:34:07;;;;;;;3.67;1.30;;;19.20;54.90;;;;;;4837731;29;20056;-49
2023/07/05 07:36:35;;;;;;;4.78;1.70;;;19.20;54.90;;;;;;4837408;29;20065;-49
2023/07/05 07:39:05;;;;;;;8.30;1.88;;;19.10;55.30;;;;;;4838221;29;20686;-53
2023/07/05 07:41:37;;;;;;;2.53;1.30;;;19.20;55.30;;;;;;4837663;29;20084;-50
2023/07/05 07:44:08;;;;;;;2.05;1.20;;;19.30;55.40;;;;;;4837920;29;20046;-49
2023/07/05 07:46:36;;;;;;;2.45;1.13;;;19.40;55.00;;;;;;4837928;29;20507;-51
2023/07/05 07:49:05;;;;;;;3.42;1.17;;;19.50;54.70;;;;;;4837329;29;20049;-49
2023/07/05 07:51:35;;;;;;;3.38;1.25;;;19.50;54.60;;;;;;4834970;29;20121;-53
2023/07/05 07:54:08;;;;;;;2.58;1.13;;;19.60;53.90;;;;;;4835862;29;20046;-53
2023/07/05 07:56:35;;;;;;;1.33;1.17;;;19.60;53.40;;;;;;4840339;29;20124;-50
2023/07/05 07:59:06;;;;;;;4.57;1.60;;;19.60;53.20;;;;;;4839776;29;20061;-53
2023/07/05 08:01:34;;;;;;;2.30;1.00;;;19.70;52.90;;;;;;4839968;29;20050;-52
2023/07/05 08:04:03;;;;;;;2.67;1.05;;;19.70;53.00;;;;;;4844608;29;20318;-53
2023/07/05 08:06:36;;;;;;;2.25;1.27;;;19.70;52.90;;;;;;4840273;29;20078;-51
2023/07/05 08:09:05;;;;;;;2.10;1.17;;;19.80;53.20;;;;;;4841187;29;20140;-52
2023/07/05 08:11:33;;;;;;;3.03;1.00;;;19.80;52.80;;;;;;4820944;29;20060;-53
2023/07/05 08:14:00;;;;;;;4.82;2.38;;;19.90;52.90;;;;;;4841231;29;20511;-52
2023/07/05 08:16:26;;;;;;;3.78;1.02;;;20.00;52.90;;;;;;4821119;29;20050;-53
2023/07/05 08:18:53;;;;;;;1.88;1.15;;;20.00;52.90;;;;;;4827609;29;20536;-52
2023/07/05 08:21:20;;;;;;;2.25;1.05;;;20.10;53.20;;;;;;4841636;29;20128;-50
2023/07/05 08:23:47;;;;;;;1.15;0.88;;;20.10;53.20;;;;;;4839497;29;20476;-52
2023/07/05 08:26:15;;;;;;;2.80;1.10;;;20.20;53.40;;;;;;4841085;29;20106;-52
2023/07/05 08:28:42;;;;;;;2.22;1.25;;;20.30;53.20;;;;;;4824016;29;20460;-50
2023/07/05 08:31:09;;;;;;;2.72;1.40;;;20.40;52.70;;;;;;4839532;29;20074;-50
2023/07/05 08:33:37;;;;;;;1.17;0.75;;;20.50;52.10;;;;;;4866339;23;20415;-45
2023/07/05 08:36:08;;;;;;;1.58;1.00;;;20.60;52.10;;;;;;4911836;29;20056;-46
2023/07/05 08:38:43;;;;;;;7.10;2.25;;;20.60;51.50;;;;;;4913472;29;20056;-45
2023/07/05 08:41:41;;;;;;;5.18;1.00;;;20.70;51.00;;;;;;4912136;29;20040;-47
2023/07/05 08:44:18;;;;;;;1.85;1.00;;;20.70;50.90;;;;;;4914043;29;20032;-46
2023/07/05 08:46:56;;;;;;;2.83;0.80;;;20.70;51.00;;;;;;4910107;29;20116;-48
2023/07/05 08:49:34;;;;;;;6.53;1.63;;;20.70;50.60;;;;;;4908217;29;20036;-45
2023/07/05 08:52:01;;;;;;;3.67;1.10;;;20.70;50.40;;;;;;4906263;29;20059;-48
2023/07/05 08:54:32;;;;;;;3.90;1.02;;;20.70;50.50;;;;;;4908175;29;20037;-48
2023/07/05 08:57:11;;;;;;;2.47;1.10;;;20.70;50.40;;;;;;4910009;29;20068;-47
2023/07/05 08:59:49;;;;;;;4.80;0.98;;;20.70;50.50;;;;;;4912142;29;20155;-44
2023/07/05 09:02:19;;;;;;;4.20;1.15;;;20.70;50.40;;;;;;4916159;29;20068;-46
2023/07/05 09:04:47;;;;;;;6.68;1.88;;;20.70;50.50;;;;;;4911499;29;20076;-44
2023/07/05 09:08:04;;;;;;;3.78;0.93;;;20.90;50.40;;;;;;4912241;29;20044;-43
2023/07/05 09:10:41;;;;;;;3.00;1.08;;;20.90;50.40;;;;;;4905287;29;20121;-45
2023/07/05 09:13:38;;;;;;;3.45;1.00;;;21.00;50.00;;;;;;4908300;29;20474;-44
2023/07/05 09:16:47;;;;;;;2.50;0.90;;;21.10;49.10;;;;;;4910266;29;20072;-44
2023/07/05 09:19:51;;;;;;;2.20;1.10;;;21.10;48.60;;;;;;4856566;29;20108;-45
2023/07/05 09:22:23;;;;;;;3.65;1.80;;;21.20;49.20;;;;;;4904630;29;20627;-45
2023/07/05 09:24:52;;;;;;;3.03;0.80;;;21.20;49.30;;;;;;4909610;29;20433;-46
2023/07/05 09:27:26;;;;;;;3.28;1.13;;;21.20;49.20;;;;;;4911198;29;20274;-44
2023/07/05 09:30:01;;;;;;;2.90;1.17;;;21.30;47.90;;;;;;4913162;29;20144;-45
2023/07/05 09:32:35;;;;;;;2.95;0.88;;;21.40;48.50;;;;;;4912244;29;20104;-45
2023/07/05 09:35:02;;;;;;;3.80;1.10;;;21.50;48.60;;;;;;4907095;29;20428;-49
2023/07/05 09:37:33;;;;;;;3.40;1.02;;;21.50;49.00;;;;;;4909507;29;20076;-49
2023/07/05 09:40:15;;;;;;;4.38;0.98;;;21.60;47.70;;;;;;4908514;29;20456;-49
2023/07/05 09:42:45;;;;;;;4.18;1.15;;;21.70;47.20;;;;;;4908895;29;20048;-47
2023/07/05 09:45:14;;;;;;;5.72;1.13;;;21.70;47.50;;;;;;4910239;29;20433;-46
2023/07/05 09:47:43;;;;;;;6.25;1.48;;;21.70;47.20;;;;;;4907668;29;20497;-45
2023/07/05 09:50:16;;;;;;;5.20;1.55;;;21.70;47.00;;;;;;4914278;29;20051;-47
2023/07/05 09:52:47;;;;;;;5.82;1.38;;;21.70;47.30;;;;;;4905963;29;20088;-48
2023/07/05 09:55:16;;;;;;;3.90;1.20;;;21.80;47.10;;;;;;4912904;29;20514;-51
2023/07/05 09:57:43;;;;;;;3.70;1.33;;;21.80;46.80;;;;;;4906664;29;20063;-52
2023/07/05 10:00:25;;;;;;;5.78;1.17;;;21.90;46.50;;;;;;4910551;29;20062;-51
2023/07/05 10:02:55;;;;;;;3.38;1.40;;;22.00;45.80;;;;;;4912842;29;20062;-51
2023/07/05 10:05:28;;;;;;;5.00;1.40;;;22.00;46.00;;;;;;4911365;29;20149;-51
2023/07/05 10:08:00;;;;;;;2.53;1.35;;;22.00;45.90;;;;;;4912425;29;20044;-52
2023/07/05 10:10:34;;;;;;;3.92;1.42;;;22.00;46.30;;;;;;4913191;29;20100;-48
2023/07/05 10:13:19;;;;;;;3.72;0.88;;;22.00;46.30;;;;;;4911920;29;20585;-49
2023/07/05 10:15:49;;;;;;;1.65;1.00;;;22.10;46.20;;;;;;4911403;29;20059;-51
2023/07/05 10:18:31;;;;;;;2.70;1.10;;;22.10;46.10;;;;;;4896049;29;20068;-47
2023/07/05 10:21:01;;;;;;;;;;;22.10;45.80;;;;;;4913388;29;20416;-51
2023/07/05 10:23:30;;;;;;;4.43;1.15;;;22.20;46.70;;;;;;4910033;29;19934;-52
2023/07/05 10:26:03;;;;;;;3.45;1.30;;;22.20;46.00;;;;;;4911700;29;20076;-50
2023/07/05 10:28:33;;;;;;;2.88;1.30;;;22.20;46.20;;;;;;4913094;29;20044;-49
2023/07/05 10:31:03;;;;;;;3.30;1.20;;;22.30;46.80;;;;;;4911469;29;20149;-52
2023/07/05 10:33:32;;;;;;;5.13;1.55;;;22.40;45.40;;;;;;4907375;29;20041;-49
2023/07/05 10:36:03;;;;;;;7.00;1.20;;;22.40;44.90;;;;;;4907188;29;20058;-49
2023/07/05 10:38:39;;;;;;;3.90;1.27;;;22.50;44.20;;;;;;4904136;29;20072;-52
2023/07/05 10:41:20;;;;;;;3.10;1.23;;;22.50;44.50;;;;;;4907863;29;20671;-51
2023/07/05 10:43:59;;;;;;;3.43;1.53;;;22.50;44.60;;;;;;4903898;29;20458;-50
2023/07/05 10:46:26;;;;;;;1.83;1.05;;;22.50;44.30;;;;;;4904732;29;20052;-48
2023/07/05 10:48:55;;;;;;;3.95;1.02;;;22.50;44.40;;;;;;4905892;29;20044;-52
2023/07/05 10:51:25;;;;;;;3.47;1.40;;;22.60;43.90;;;;;;4910093;29;20545;-52
2023/07/05 10:54:09;;;;;;;1.85;1.00;;;22.60;43.90;;;;;;4909079;29;20103;-52
2023/07/05 10:56:38;;;;;;;3.25;0.95;;;22.70;43.90;;;;;;4905520;29;20084;-51
2023/07/05 10:59:32;;;;;;;2.50;1.15;;;22.70;43.70;;;;;;4910072;29;20047;-51
2023/07/05 11:02:47;;;;;;;2.85;1.00;;;22.80;43.00;;;;;;4907950;29;20052;-49
2023/07/05 11:05:41;;;;;;;2.95;1.38;;;22.80;43.30;;;;;;4906047;29;20151;-51
2023/07/05 11:08:16;;;;;;;4.93;1.55;;;22.80;43.00;;;;;;4896001;29;20044;-50
2023/07/05 11:10:44;;;;;;;3.83;1.30;;;22.90;43.50;;;;;;4913067;29;20059;-52
2023/07/05 11:13:15;;;;;;;1.73;0.98;;;22.90;43.20;;;;;;4912519;29;20051;-52
2023/07/05 11:15:44;;;;;;;4.47;1.35;;;23.00;42.30;;;;;;4911292;29;20087;-50
2023/07/05 11:18:20;;;;;;;2.58;1.05;;;23.00;42.50;;;;;;4909349;29;20498;-51
2023/07/05 11:20:54;;;;;;;3.60;1.15;;;23.10;42.50;;;;;;4911370;29;20052;-50
2023/07/05 11:23:46;;;;;;;3.72;0.95;;;23.20;41.80;;;;;;4910134;29;20059;-48
2023/07/05 11:26:39;;;;;;;3.73;0.90;;;23.30;41.60;;;;;;4907037;29;20063;-50
2023/07/05 11:29:25;;;;;;;2.25;1.00;;;23.40;41.30;;;;;;4914538;29;20119;-52
2023/07/05 11:31:51;;;;;;;2.80;1.00;;;23.50;41.40;;;;;;4914295;29;20080;-52
2023/07/05 11:34:21;;;;;;;5.65;1.70;;;23.50;40.90;;;;;;4911601;29;20044;-50
2023/07/05 11:37:12;;;;;;;2.50;0.90;;;23.50;40.60;;;;;;4909813;29;20051;-50
2023/07/05 11:39:41;;;;;;;1.50;0.70;;;23.50;41.10;;;;;;4898412;29;20093;-51
2023/07/05 11:42:17;;;;;;;1.92;0.82;;;23.60;40.60;;;;;;4916516;29;20071;-51
2023/07/05 11:44:50;;;;;;;1.75;1.00;;;23.60;40.20;;;;;;4916484;29;20059;-49
2023/07/05 11:47:22;;;;;;;2.35;1.10;;;23.70;39.40;;;;;;4902579;29;20052;-51
2023/07/05 11:49:57;;;;;;;3.03;1.05;;;23.70;39.90;;;;;;4909478;29;20059;-50
2023/07/05 11:52:29;;;;;;;2.75;0.93;;;23.70;40.20;;;;;;4907698;29;20564;-49
2023/07/05 11:55:24;;;;;;;2.80;1.20;;;23.60;40.90;;;;;;4914271;29;20047;-52
2023/07/05 11:58:23;;;;;;;4.70;1.40;;;23.50;41.10;;;;;;4911627;29;20571;-50
2023/07/05 12:01:15;;;;;;;6.07;1.70;;;23.50;42.10;;;;;;4915410;29;20040;-52
2023/07/05 12:03:48;;;;;;;3.90;1.40;;;23.40;42.40;;;;;;4915910;29;20056;-52
2023/07/05 12:06:20;;;;;;;2.50;1.10;;;23.40;42.00;;;;;;4913690;29;20045;-51
2023/07/05 12:09:12;;;;;;;8.18;2.88;;;23.40;42.10;;;;;;4913287;29;20513;-50
2023/07/05 12:11:40;;;;;;;2.38;0.90;;;23.50;42.10;;;;;;4899592;29;20048;-52
2023/07/05 12:14:13;;;;;;;3.28;1.35;;;23.60;42.20;;;;;;4912159;29;20044;-49
2023/07/05 12:16:41;;;;;;;5.22;1.60;;;23.70;41.90;;;;;;4913146;29;20083;-51
2023/07/05 12:19:15;;;;;;;2.22;1.20;;;23.70;41.90;;;;;;4915515;29;20040;-52
2023/07/05 12:21:59;;;;;;;3.25;1.02;;;23.80;41.90;;;;;;4914923;29;20058;-51
2023/07/05 12:24:26;;;;;;;4.85;1.38;;;24.00;42.30;;;;;;4909905;29;20040;-52
2023/07/05 12:26:56;;;;;;;8.98;1.65;;;24.00;41.90;;;;;;4909461;29;20139;-52
2023/07/05 12:29:30;;;;;;;3.45;1.27;;;24.10;41.70;;;;;;4913870;29;20127;-52
2023/07/05 12:32:15;;;;;;;5.15;1.70;;;24.20;41.60;;;;;;4911556;29;20394;-52
2023/07/05 12:34:41;;;;;;;3.50;1.15;;;24.20;41.30;;;;;;4912094;29;20466;-52
2023/07/05 12:37:08;;;;;;;4.40;1.42;;;24.20;42.20;;;;;;4895836;29;20519;-51
2023/07/05 12:39:38;;;;;;;1.88;1.55;;;24.10;42.70;;;;;;4911228;29;20058;-52
2023/07/05 12:42:12;;;;;;;3.95;1.30;;;24.10;43.00;;;;;;4898261;29;20103;-52
2023/07/05 12:44:40;;;;;;;4.93;1.70;;;24.00;43.50;;;;;;4915428;29;20132;-51
2023/07/05 12:47:17;;;;;;;3.38;1.55;;;23.90;43.50;;;;;;4914507;29;20572;-51
2023/07/05 12:49:44;;;;;;;4.05;1.20;;;23.90;43.90;;;;;;4911598;29;20651;-52
2023/07/05 12:52:22;;;;;;;2.92;1.30;;;23.90;44.10;;;;;;4915266;29;20124;-51
2023/07/05 12:54:49;;;;;;;1.70;1.15;;;23.80;44.10;;;;;;4910337;29;20075;-49
2023/07/05 12:57:23;;;;;;;3.45;1.52;;;23.80;44.00;;;;;;4912052;29;20040;-52
2023/07/05 12:59:50;;;;;;;2.55;1.73;;;23.80;44.10;;;;;;4914363;29;20529;-51
2023/07/05 13:02:32;;;;;;;;;;;23.80;44.30;;;;;;4909928;29;20104;-51
2023/07/05 13:05:02;;;;;;;6.00;2.08;;;23.80;44.70;;;;;;4911065;29;20440;-50
2023/07/05 13:07:32;;;;;;;3.30;1.83;;;23.70;46.80;;;;;;4905321;29;20052;-46
2023/07/05 13:10:06;;;;;;;3.88;1.70;;;23.60;49.90;;;;;;4912276;29;20051;-51
2023/07/05 13:12:47;;;;;;;4.22;1.80;;;23.40;51.20;;;;;;4914486;29;20068;-51